Time;durP1;ratioP1;P1;durP2;ratioP2;P2;SDS_P1;SDS_P2;PMS_P1;PMS_P2;Temp;Humidity;BMP_temperature;BMP_pressure;BME280_temperature;BME280_humidity;BME280_pressure;Samples;Min_cycle;Max_cycle;Signal;HPM_P1;HPM_P2
2022/02/28 00:02:14;;;;;;;24.97;12.67;;;;;;;1.11;65.47;102081.25;8240219;34;20468;-74
2022/02/28 00:07:19;;;;;;;19.83;10.38;;;;;;;1.00;65.64;102094.63;8243216;34;20432;-74
2022/02/28 00:12:22;;;;;;;20.30;10.97;;;;;;;1.04;65.68;102097.22;8242303;34;20734;-74
2022/02/28 00:17:25;;;;;;;19.35;12.00;;;;;;;1.02;65.60;102092.84;8240786;34;21042;-74
2022/02/28 00:22:30;;;;;;;22.90;12.10;;;;;;;0.98;65.79;102084.06;8246290;34;20500;-74
2022/02/28 00:27:33;;;;;;;17.63;10.87;;;;;;;0.97;65.82;102094.69;8246526;35;20174;-74
2022/02/28 00:32:37;;;;;;;19.17;11.23;;;;;;;0.92;65.86;102077.97;8249317;34;20519;-74
2022/02/28 00:37:42;;;;;;;21.80;11.57;;;;;;;0.93;65.70;102079.72;8269983;34;20263;-74
2022/02/28 00:42:45;;;;;;;22.52;11.55;;;;;;;0.79;66.17;102094.00;8251406;34;20153;-74
2022/02/28 00:47:48;;;;;;;22.47;11.40;;;;;;;0.80;65.92;102089.63;8252162;34;20486;-74
2022/02/28 00:52:53;;;;;;;19.30;10.90;;;;;;;0.83;65.65;102089.56;8251828;34;20446;-75
2022/02/28 00:58:14;;;;;;;17.95;10.15;;;;;;;0.92;65.50;102086.78;8250725;34;20713;-74
2022/02/28 01:03:18;;;;;;;17.75;10.60;;;;;;;0.93;65.74;102096.47;8252698;34;20156;-74
2022/02/28 01:08:22;;;;;;;22.13;10.38;;;;;;;1.00;65.12;102086.69;8251780;34;20137;-74
2022/02/28 01:13:25;;;;;;;21.63;11.20;;;;;;;1.00;65.02;102084.91;8252151;34;20436;-74
2022/02/28 01:18:28;;;;;;;18.27;10.60;;;;;;;0.94;64.94;102097.38;8252398;34;20438;-73
2022/02/28 01:23:33;;;;;;;22.27;11.43;;;;;;;0.89;65.31;102094.78;8245825;34;20411;-74
2022/02/28 01:28:36;;;;;;;19.20;10.30;;;;;;;0.90;64.92;102085.06;8248376;34;20521;-74
2022/02/28 01:33:40;;;;;;;17.80;10.25;;;;;;;0.82;65.31;102075.47;8263526;34;20525;-74
2022/02/28 01:38:44;;;;;;;19.47;10.53;;;;;;;0.68;65.77;102068.59;8269490;34;20186;-74
2022/02/28 01:43:47;;;;;;;25.30;11.53;;;;;;;0.66;65.93;102071.28;8256364;34;20955;-73
2022/02/28 01:48:51;;;;;;;19.80;10.70;;;;;;;0.55;66.50;102068.78;8256247;34;20149;-74
2022/02/28 01:53:55;;;;;;;21.90;11.60;;;;;;;0.50;66.42;102067.06;8274335;34;20155;-74
2022/02/28 01:58:59;;;;;;;19.57;10.80;;;;;;;0.47;66.80;102064.47;8250984;34;20432;-74
2022/02/28 02:04:02;;;;;;;22.17;11.83;;;;;;;0.50;66.56;102062.66;8272174;34;20638;-74
2022/02/28 02:09:06;;;;;;;23.60;10.70;;;;;;;0.46;66.22;102057.41;8271743;34;20589;-74
2022/02/28 02:14:12;;;;;;;18.20;10.40;;;;;;;0.50;66.45;102056.50;8249477;34;20513;-74
2022/02/28 02:19:15;;;;;;;25.70;10.93;;;;;;;0.41;66.59;102062.75;8271086;34;20443;-74
2022/02/28 02:24:20;;;;;;;20.10;10.47;;;;;;;0.44;66.42;102053.91;8269746;34;20421;-74
2022/02/28 02:29:23;;;;;;;19.03;10.67;;;;;;;0.41;66.17;102053.94;8245832;34;20204;-74
2022/02/28 02:34:26;;;;;;;21.37;11.47;;;;;;;0.41;66.12;102052.16;8268388;34;20453;-74
2022/02/28 02:39:31;;;;;;;16.33;10.57;;;;;;;0.41;66.18;102051.31;8270480;34;20427;-74
2022/02/28 02:44:36;;;;;;;17.70;11.07;;;;;;;0.43;65.96;102047.75;8272252;34;20125;-72
2022/02/28 02:49:39;;;;;;;25.07;11.47;;;;;;;0.42;66.21;102050.44;8267714;34;20468;-74
2022/02/28 02:54:44;;;;;;;21.47;11.80;;;;;;;0.34;66.11;102054.03;8243655;34;20325;-74
2022/02/28 02:59:50;;;;;;;21.30;10.80;;;;;;;0.38;65.74;102060.16;8264758;34;20534;-73
2022/02/28 03:04:54;;;;;;;18.50;10.50;;;;;;;0.32;65.96;102055.81;8265429;34;20448;-74
2022/02/28 03:10:00;;;;;;;20.37;10.60;;;;;;;0.35;66.04;102058.41;8266469;34;20533;-74
2022/02/28 03:15:04;;;;;;;20.27;10.50;;;;;;;0.34;65.71;102058.44;8249577;34;20149;-74
2022/02/28 03:20:09;;;;;;;19.20;10.43;;;;;;;0.32;66.00;102053.16;8247954;34;20511;-74
2022/02/28 03:25:13;;;;;;;19.37;10.83;;;;;;;0.29;65.80;102060.25;8269878;34;20466;-74
2022/02/28 03:30:22;;;;;;;20.73;11.27;;;;;;;0.17;66.14;102064.81;8265221;34;20438;-74
2022/02/28 03:35:26;;;;;;;19.37;11.03;;;;;;;0.08;66.57;102058.72;8258738;28;20140;-76
2022/02/28 03:40:31;;;;;;;17.73;10.53;;;;;;;-0.00;66.64;102065.84;8242564;34;20245;-76
2022/02/28 03:45:34;;;;;;;20.57;10.63;;;;;;;-0.08;67.33;102060.69;8198898;34;20293;-76
2022/02/28 03:50:38;;;;;;;22.50;10.97;;;;;;;-0.09;67.22;102072.13;8187865;35;20153;-76
2022/02/28 03:55:43;;;;;;;24.70;11.20;;;;;;;-0.07;66.97;102068.56;8187801;35;20429;-76
2022/02/28 04:00:46;;;;;;;23.53;11.67;;;;;;;-0.12;67.35;102070.38;8191862;35;20540;-76
2022/02/28 04:05:54;;;;;;;20.20;10.67;;;;;;;-0.18;67.41;102073.09;8194950;35;20141;-76
2022/02/28 04:10:58;;;;;;;19.40;10.20;;;;;;;-0.20;67.44;102074.84;8193175;35;20149;-76
2022/02/28 04:16:01;;;;;;;19.43;10.67;;;;;;;-0.40;67.74;102067.13;8189604;35;20545;-76
2022/02/28 04:21:07;;;;;;;19.17;11.00;;;;;;;-0.34;67.72;102053.84;8190603;35;20165;-76
2022/02/28 04:26:12;;;;;;;20.93;11.27;;;;;;;-0.35;68.06;102059.16;8199446;35;20497;-76
2022/02/28 04:31:15;;;;;;;22.37;11.10;;;;;;;-0.37;68.13;102050.38;8195834;35;20435;-76
2022/02/28 04:36:21;;;;;;;18.07;10.23;;;;;;;-0.35;67.85;102052.13;8194033;35;20466;-76
2022/02/28 04:41:27;;;;;;;20.40;11.27;;;;;;;-0.39;68.35;102038.94;8191015;35;20426;-76
2022/02/28 04:46:30;;;;;;;19.27;10.97;;;;;;;-0.43;68.49;102046.03;8193276;35;20157;-75
2022/02/28 04:51:45;;;;;;;23.80;12.03;;;;;;;-0.46;68.51;102043.41;8192104;35;20457;-75
2022/02/28 04:56:54;;;;;;;19.70;10.87;;;;;;;-0.46;68.89;102048.69;8189310;35;20559;-75
2022/02/28 05:01:58;;;;;;;21.73;11.03;;;;;;;-0.47;68.47;102051.34;8189087;35;20252;-75
2022/02/28 05:07:21;;;;;;;20.67;10.77;;;;;;;-0.46;68.47;102061.91;8185775;35;20940;-75
2022/02/28 05:12:27;;;;;;;21.03;11.50;;;;;;;-0.53;68.58;102074.25;8192728;35;20895;-75
2022/02/28 05:17:34;;;;;;;21.10;10.37;;;;;;;-0.57;68.83;102074.31;8190350;35;20438;-75
2022/02/28 05:22:37;;;;;;;19.80;10.83;;;;;;;-0.62;69.07;102082.25;8194992;35;20153;-75
2022/02/28 05:27:46;;;;;;;17.53;10.53;;;;;;;-0.62;69.11;102079.63;8199266;35;20452;-74
2022/02/28 05:32:50;;;;;;;22.57;11.43;;;;;;;-0.64;69.46;102077.88;8197851;35;20861;-75
2022/02/28 05:37:59;;;;;;;21.50;11.30;;;;;;;-0.59;68.91;102078.72;8192059;35;20298;-75
2022/02/28 05:43:04;;;;;;;18.17;10.27;;;;;;;-0.62;68.91;102084.03;8191597;35;20146;-75
2022/02/28 05:48:07;;;;;;;18.90;11.20;;;;;;;-0.60;69.06;102077.84;8191978;35;20269;-74
2022/02/28 05:53:12;;;;;;;22.43;11.53;;;;;;;-0.63;69.06;102090.16;8191076;35;20142;-74
2022/02/28 05:58:16;;;;;;;18.80;10.97;;;;;;;-0.67;69.06;102091.09;8187659;34;20172;-74
2022/02/28 06:03:19;;;;;;;24.50;11.80;;;;;;;-0.68;69.06;102089.34;8187352;34;20439;-74
2022/02/28 06:08:24;;;;;;;24.90;11.53;;;;;;;-0.67;69.41;102086.69;8185053;35;20431;-73
2022/02/28 06:13:28;;;;;;;17.13;9.03;;;;;;;-0.75;69.40;102089.38;8185331;34;20157;-74
2022/02/28 06:18:31;;;;;;;21.70;11.13;;;;;;;-0.65;69.12;102081.41;8185587;34;21080;-74
2022/02/28 06:23:34;;;;;;;20.97;11.07;;;;;;;-0.64;69.29;102086.66;8187876;34;20539;-74
2022/02/28 06:28:39;;;;;;;22.47;11.30;;;;;;;-0.66;69.53;102082.28;8191757;34;20490;-74
2022/02/28 06:33:42;;;;;;;22.13;11.47;;;;;;;-0.50;68.97;102081.28;8195426;35;20181;-75
2022/02/28 06:38:45;;;;;;;22.90;11.17;;;;;;;-0.33;68.50;102092.59;8195437;35;20142;-74
2022/02/28 06:43:49;;;;;;;21.00;11.30;;;;;;;-0.03;67.86;102089.66;8208512;35;20213;-74
2022/02/28 06:48:52;;;;;;;20.43;10.97;;;;;;;0.11;66.81;102096.59;8209692;34;20430;-75
2022/02/28 06:53:55;;;;;;;22.00;10.63;;;;;;;0.31;66.41;102085.78;8203685;34;20519;-74
2022/02/28 06:58:59;;;;;;;23.00;11.40;;;;;;;0.58;65.56;102081.09;8197559;34;20449;-74
2022/02/28 07:04:04;;;;;;;19.37;10.37;;;;;;;0.84;64.73;102080.72;8197360;35;20852;-74
2022/02/28 07:09:09;;;;;;;20.40;10.73;;;;;;;0.92;63.80;102076.22;8194318;35;20718;-75
2022/02/28 07:14:13;;;;;;;23.57;11.20;;;;;;;1.20;63.07;102078.44;8193863;35;20547;-74
2022/02/28 07:19:16;;;;;;;20.90;10.57;;;;;;;1.27;62.23;102085.41;8191634;35;20498;-75
2022/02/28 07:24:20;;;;;;;14.67;9.30;;;;;;;1.61;61.66;102085.75;8193534;35;20537;-75
2022/02/28 07:29:24;;;;;;;20.88;11.30;;;;;;;1.73;61.25;102092.63;8190128;35;20482;-75
2022/02/28 07:34:30;;;;;;;22.10;11.85;;;;;;;2.01;60.74;102084.19;8194030;34;20152;-75
2022/02/28 07:39:33;;;;;;;20.63;10.60;;;;;;;2.48;59.81;102096.53;8199078;34;20714;-74
2022/02/28 07:44:37;;;;;;;19.65;11.70;;;;;;;2.65;59.25;102100.66;8188248;35;20859;-75
2022/02/28 07:49:42;;;;;;;22.67;12.77;;;;;;;2.92;58.24;102113.34;8208795;34;20532;-74
2022/02/28 07:54:45;;;;;;;20.73;10.93;;;;;;;2.96;58.04;102114.13;8188999;35;20563;-75
2022/02/28 07:59:50;;;;;;;16.30;10.05;;;;;;;3.66;57.51;102109.84;8190173;35;20458;-75
2022/02/28 08:04:53;;;;;;;15.88;10.18;;;;;;;4.05;56.00;102112.41;8182567;35;20713;-75
2022/02/28 08:09:56;;;;;;;19.65;12.07;;;;;;;3.92;55.21;102106.56;8182915;35;20153;-75
2022/02/28 08:15:00;;;;;;;18.58;10.15;;;;;;;4.39;54.37;102108.84;8184768;34;20221;-74
2022/02/28 08:20:04;;;;;;;20.05;10.88;;;;;;;4.58;53.56;102120.72;8202356;35;21083;-74
2022/02/28 08:25:09;;;;;;;18.05;10.40;;;;;;;4.99;53.03;102121.34;8205597;35;20546;-74
2022/02/28 08:30:14;;;;;;;15.45;10.07;;;;;;;5.27;51.49;102121.38;8202792;35;20478;-74
2022/02/28 08:35:18;;;;;;;17.17;10.35;;;;;;;5.17;51.25;102119.91;8194978;35;20517;-75
2022/02/28 08:40:21;;;;;;;20.60;12.27;;;;;;;5.49;51.23;102113.56;8189640;35;20373;-74
2022/02/28 08:45:28;;;;;;;20.27;11.27;;;;;;;5.69;50.27;102112.91;8189197;35;20149;-75
2022/02/28 08:50:31;;;;;;;20.80;11.38;;;;;;;5.79;50.05;102107.25;8188251;35;20785;-75
2022/02/28 08:55:34;;;;;;;19.42;11.20;;;;;;;6.14;49.89;102108.69;8190841;35;20538;-75
2022/02/28 09:00:39;;;;;;;15.25;9.40;;;;;;;6.39;49.21;102108.72;8191413;35;20478;-75
2022/02/28 09:05:42;;;;;;;16.55;10.85;;;;;;;6.70;48.62;102108.47;8193773;35;20657;-75
2022/02/28 09:10:45;;;;;;;17.95;10.93;;;;;;;6.61;48.24;102106.16;8190492;34;20432;-76
2022/02/28 09:15:50;;;;;;;16.80;10.45;;;;;;;7.08;48.42;102111.50;8196577;35;21275;-75
2022/02/28 09:20:55;;;;;;;18.48;10.93;;;;;;;7.35;47.74;102111.31;8198069;35;20149;-75
2022/02/28 09:25:58;;;;;;;18.05;10.80;;;;;;;7.44;46.82;102119.00;8198521;35;20684;-76
2022/02/28 09:31:03;;;;;;;16.23;10.45;;;;;;;7.70;46.06;102117.91;8198196;35;20587;-75
2022/02/28 09:36:07;;;;;;;20.00;11.02;;;;;;;7.68;45.78;102117.13;8198760;35;20204;-75
2022/02/28 09:41:11;;;;;;;21.85;10.02;;;;;;;7.63;46.24;102116.44;8197365;35;20451;-75
2022/02/28 09:46:55;;;;;;;17.77;10.02;;;;;;;7.63;46.66;102111.97;8207308;34;20462;-75
2022/02/28 09:52:17;;;;;;;18.10;10.07;;;;;;;7.91;45.51;102110.81;8237974;34;20622;-75
2022/02/28 09:57:26;;;;;;;20.15;10.10;;;;;;;8.55;44.95;102102.66;8250556;34;20563;-75
2022/02/28 10:02:43;;;;;;;19.52;10.93;;;;;;;8.76;44.35;102108.84;8241633;34;20152;-75
2022/02/28 10:07:50;;;;;;;15.18;10.38;;;;;;;9.03;44.14;102103.16;8246737;34;20962;-75
2022/02/28 10:12:54;;;;;;;17.63;10.48;;;;;;;9.08;42.14;102106.47;8249842;34;20165;-77
2022/02/28 10:18:01;;;;;;;17.73;10.43;;;;;;;9.31;42.21;102100.00;8244555;34;20510;-75
2022/02/28 10:23:09;;;;;;;15.73;9.65;;;;;;;9.42;42.32;102105.72;8241812;34;20464;-75
2022/02/28 10:28:37;;;;;;;15.60;9.57;;;;;;;9.57;41.79;102112.16;8243416;34;20478;-75
2022/02/28 10:33:48;;;;;;;14.93;10.30;;;;;;;10.09;41.22;102111.34;8238123;34;21006;-75
2022/02/28 10:39:11;;;;;;;17.55;9.95;;;;;;;10.22;40.69;102115.13;8238977;34;20156;-75
2022/02/28 10:44:15;;;;;;;15.30;9.93;;;;;;;10.35;40.37;102105.47;8237926;34;20591;-75
2022/02/28 10:49:24;;;;;;;13.95;9.55;;;;;;;10.51;40.64;102099.31;8237786;34;20436;-75
2022/02/28 10:54:30;;;;;;;19.10;10.07;;;;;;;10.81;39.78;102104.84;8238013;34;20529;-75
2022/02/28 10:59:40;;;;;;;16.15;10.55;;;;;;;11.01;39.53;102096.53;8238389;34;20522;-76
2022/02/28 11:04:44;;;;;;;17.05;9.82;;;;;;;10.91;39.51;102083.66;8240692;34;20502;-75
2022/02/28 11:09:49;;;;;;;19.00;10.02;;;;;;;10.70;37.89;102077.69;8238495;34;20476;-75
2022/02/28 11:14:55;;;;;;;16.77;9.88;;;;;;;10.69;38.51;102074.09;8249306;34;20244;-74
2022/02/28 11:20:06;;;;;;;17.67;9.43;;;;;;;10.92;37.89;102069.28;8245517;34;20171;-75
2022/02/28 11:25:12;;;;;;;14.52;9.07;;;;;;;11.40;37.71;102068.34;8242686;34;20665;-75
2022/02/28 11:30:21;;;;;;;17.20;9.32;;;;;;;12.27;37.08;102069.47;8229964;34;20458;-75
2022/02/28 11:35:45;;;;;;;12.32;8.55;;;;;;;12.90;33.76;102060.16;8207823;34;20960;-75
2022/02/28 11:40:51;;;;;;;11.88;8.38;;;;;;;13.32;32.15;102064.56;8189111;34;20424;-75
2022/02/28 11:45:56;;;;;;;13.38;9.10;;;;;;;14.38;31.20;102051.94;8228645;34;20157;-75
2022/02/28 11:51:02;;;;;;;13.40;8.53;;;;;;;13.76;31.16;102054.47;8212412;34;20449;-76
2022/02/28 11:56:57;;;;;;;13.25;9.30;;;;;;;14.08;31.58;102042.31;8193484;35;20441;-76
2022/02/28 12:02:09;;;;;;;14.25;9.43;;;;;;;14.80;30.08;102039.91;8190384;35;20563;-75
2022/02/28 12:07:28;;;;;;;12.88;9.05;;;;;;;14.95;29.61;102039.78;8191008;35;20434;-75
2022/02/28 12:12:33;;;;;;;14.45;8.90;;;;;;;14.82;29.53;102032.53;8191156;35;20454;-75
2022/02/28 12:18:08;;;;;;;12.85;8.60;;;;;;;15.81;29.92;102033.31;8194558;35;20477;-75
2022/02/28 12:23:24;;;;;;;11.32;8.18;;;;;;;15.51;29.80;102023.84;8198737;34;20430;-75
2022/02/28 12:28:30;;;;;;;11.90;8.63;;;;;;;15.84;29.25;102020.38;8197411;35;20454;-75
2022/02/28 12:34:00;;;;;;;13.00;9.07;;;;;;;15.99;28.09;102018.34;8231160;34;20215;-76
2022/02/28 12:39:12;;;;;;;12.20;8.23;;;;;;;16.05;28.80;102017.84;8247839;35;20450;-75
2022/02/28 12:44:17;;;;;;;11.90;8.73;;;;;;;15.88;28.97;102018.31;8247684;34;20192;-75
2022/02/28 12:49:25;;;;;;;10.90;8.60;;;;;;;16.20;27.73;102007.63;8248438;35;20540;-75
2022/02/28 12:54:33;;;;;;;12.95;8.65;;;;;;;15.61;28.53;102021.31;8248890;34;20425;-75
2022/02/28 12:59:39;;;;;;;11.40;7.82;;;;;;;15.92;28.20;102014.38;8258194;34;20203;-75
2022/02/28 13:04:52;;;;;;;11.45;7.78;;;;;;;15.47;28.58;102020.53;8261538;34;20429;-75
2022/02/28 13:09:56;;;;;;;11.07;7.80;;;;;;;14.80;28.35;102012.00;8261054;35;20243;-75
2022/02/28 13:15:00;;;;;;;14.73;7.82;;;;;;;14.38;30.38;102014.09;8227312;34;20479;-75
2022/02/28 13:20:08;;;;;;;10.93;7.60;;;;;;;14.60;30.09;102011.59;8208103;35;21109;-75
2022/02/28 13:25:15;;;;;;;14.13;8.10;;;;;;;14.53;30.12;102001.34;8199162;35;20304;-75
2022/02/28 13:30:18;;;;;;;11.88;8.32;;;;;;;14.39;29.75;101988.81;8193995;35;20489;-76
2022/02/28 13:35:21;;;;;;;9.85;7.55;;;;;;;14.95;29.33;101980.25;8204279;35;20538;-75
2022/02/28 13:40:26;;;;;;;10.77;7.35;;;;;;;16.23;27.27;101968.56;8195915;35;20931;-75
2022/02/28 13:45:32;;;;;;;10.73;7.40;;;;;;;16.81;26.94;101959.31;8197076;35;20550;-75
2022/02/28 13:50:44;;;;;;;13.45;8.23;;;;;;;17.15;26.03;101951.06;8197523;35;20145;-75
2022/02/28 13:55:51;;;;;;;11.30;8.43;;;;;;;17.22;26.37;101945.97;8223007;34;20681;-75
2022/02/28 14:00:58;;;;;;;9.73;7.32;;;;;;;16.00;26.70;101946.88;8226873;34;20459;-75
2022/02/28 14:06:01;;;;;;;10.85;7.78;;;;;;;16.30;26.86;101926.47;8244752;34;20438;-75
2022/02/28 14:11:08;;;;;;;9.75;6.60;;;;;;;16.20;27.37;101920.03;8245867;34;20608;-75
2022/02/28 14:16:17;;;;;;;9.85;7.30;;;;;;;17.57;26.51;101915.78;8244726;34;21198;-75
2022/02/28 14:21:26;;;;;;;8.93;7.40;;;;;;;16.63;26.47;101917.41;8241432;34;20429;-75
2022/02/28 14:26:57;;;;;;;10.35;8.27;;;;;;;14.38;28.92;101916.78;8244975;34;20419;-75
2022/02/28 14:32:15;;;;;;;11.35;7.43;;;;;;;15.24;28.62;101904.94;8243706;34;20594;-76
2022/02/28 14:37:18;;;;;;;12.40;7.75;;;;;;;14.51;28.55;101904.13;8199077;34;20667;-74
2022/02/28 14:42:22;;;;;;;9.88;7.32;;;;;;;14.47;28.81;101899.91;8190437;35;20626;-75
2022/02/28 14:47:27;;;;;;;13.73;7.70;;;;;;;13.66;28.53;101897.63;8192631;35;20442;-74
2022/02/28 14:52:30;;;;;;;9.50;6.72;;;;;;;13.48;29.64;101900.63;8189105;35;20525;-75
2022/02/28 14:57:35;;;;;;;11.50;7.05;;;;;;;13.47;29.31;101888.13;8189232;35;20533;-75
2022/02/28 15:02:38;;;;;;;10.27;7.10;;;;;;;12.70;28.61;101881.66;8187014;35;20626;-74
2022/02/28 15:07:41;;;;;;;11.32;7.43;;;;;;;12.16;29.73;101887.78;8183894;35;20429;-74
2022/02/28 15:12:46;;;;;;;10.43;7.32;;;;;;;12.19;30.19;101878.66;8185305;35;20484;-73
2022/02/28 15:17:49;;;;;;;12.95;7.70;;;;;;;12.08;30.25;101878.47;8189203;35;20189;-74
2022/02/28 15:22:52;;;;;;;11.35;7.25;;;;;;;11.79;31.28;101883.00;8201205;35;20138;-74
2022/02/28 15:27:57;;;;;;;12.55;8.20;;;;;;;12.04;32.16;101877.81;8192346;34;20455;-74
2022/02/28 15:33:11;;;;;;;10.32;7.05;;;;;;;11.69;32.09;101874.66;8193917;35;20162;-73
2022/02/28 15:38:15;;;;;;;12.50;7.45;;;;;;;11.72;32.92;101874.44;8150005;35;20155;-74
2022/02/28 15:43:20;;;;;;;11.55;7.53;;;;;;;11.73;33.18;101873.47;8142723;35;20450;-74
2022/02/28 15:48:23;;;;;;;12.15;7.55;;;;;;;11.11;33.99;101876.34;8142232;35;20611;-73
2022/02/28 15:53:26;;;;;;;12.45;7.72;;;;;;;11.08;34.65;101876.53;8143444;35;20451;-74
2022/02/28 15:58:31;;;;;;;11.88;7.40;;;;;;;10.33;35.63;101888.94;8141458;35;20440;-74
2022/02/28 16:03:34;;;;;;;11.52;7.78;;;;;;;9.97;36.23;101886.47;8146059;35;20425;-73
2022/02/28 16:08:38;;;;;;;11.80;7.65;;;;;;;9.88;36.53;101886.03;8141880;35;20955;-73
2022/02/28 16:13:42;;;;;;;13.43;7.82;;;;;;;9.79;36.90;101886.50;8142266;35;20145;-73
2022/02/28 16:18:46;;;;;;;23.55;13.40;;;;;;;9.98;36.77;101885.50;8145888;35;20445;-73
2022/02/28 16:23:49;;;;;;;27.52;15.50;;;;;;;10.19;36.85;101883.47;8155443;35;20529;-73
2022/02/28 16:28:54;;;;;;;16.15;8.63;;;;;;;9.65;36.80;101886.34;8156832;35;20449;-73
2022/02/28 16:33:58;;;;;;;14.70;9.60;;;;;;;9.80;37.45;101874.81;8176725;35;20565;-73
2022/02/28 16:39:01;;;;;;;27.58;15.55;;;;;;;9.68;37.73;101880.81;8166468;35;20241;-74
2022/02/28 16:44:08;;;;;;;28.05;16.15;;;;;;;9.20;38.74;101875.28;8168295;35;20193;-74
2022/02/28 16:49:11;;;;;;;29.55;15.57;;;;;;;8.66;39.63;101876.25;8155631;35;20150;-75
2022/02/28 16:54:14;;;;;;;37.97;21.83;;;;;;;8.21;40.58;101873.03;8156345;35;20285;-75
2022/02/28 16:59:18;;;;;;;16.17;10.25;;;;;;;7.87;40.88;101881.75;8160002;35;20260;-72
2022/02/28 17:04:21;;;;;;;32.88;18.02;;;;;;;7.66;41.24;101878.25;8160378;35;20528;-72
2022/02/28 17:09:24;;;;;;;16.80;10.80;;;;;;;7.40;41.87;101884.75;8162827;35;20487;-73
2022/02/28 17:14:29;;;;;;;16.15;9.45;;;;;;;7.31;42.22;101891.38;8158835;35;20584;-75
2022/02/28 17:19:32;;;;;;;16.65;9.88;;;;;;;7.06;42.78;101888.88;8158689;35;20154;-73
2022/02/28 17:24:35;;;;;;;19.05;10.23;;;;;;;6.93;43.55;101893.88;8180983;35;20345;-74
2022/02/28 17:29:39;;;;;;;18.27;10.52;;;;;;;6.79;44.51;101890.88;8152470;35;20520;-75
2022/02/28 17:34:42;;;;;;;16.60;9.82;;;;;;;6.70;44.22;101897.47;8151186;35;20591;-76
2022/02/28 17:39:46;;;;;;;27.17;17.20;;;;;;;6.67;44.68;101886.91;8158835;35;20455;-76
2022/02/28 17:44:50;;;;;;;17.25;10.75;;;;;;;6.62;44.91;101880.88;8146197;35;20986;-75
2022/02/28 17:49:53;;;;;;;17.95;11.02;;;;;;;6.47;45.16;101879.69;8143012;35;20502;-75
2022/02/28 17:54:59;;;;;;;21.23;11.88;;;;;;;6.41;45.75;101882.63;8141947;35;20185;-76
2022/02/28 18:00:08;;;;;;;39.30;20.73;;;;;;;6.42;46.01;101883.47;8142655;35;20412;-75
2022/02/28 18:05:16;;;;;;;35.08;18.15;;;;;;;6.31;46.39;101883.94;8143357;35;20596;-75
2022/02/28 18:10:25;;;;;;;23.40;14.10;;;;;;;6.09;47.13;101878.56;8144997;35;20590;-75
2022/02/28 18:15:30;;;;;;;25.42;15.75;;;;;;;5.99;47.49;101871.81;8144907;35;20429;-75
2022/02/28 18:20:33;;;;;;;25.35;14.20;;;;;;;5.87;48.07;101875.81;8144084;35;20499;-74
2022/02/28 18:25:37;;;;;;;21.33;12.05;;;;;;;5.71;48.43;101865.72;8131274;35;21078;-75
2022/02/28 18:30:42;;;;;;;29.77;15.07;;;;;;;5.60;48.72;101872.41;8127735;35;20552;-75
2022/02/28 18:35:46;;;;;;;28.65;13.77;;;;;;;5.56;48.65;101876.09;8142698;35;20455;-74
2022/02/28 18:40:49;;;;;;;26.55;13.57;;;;;;;5.52;48.42;101883.34;8161313;35;20143;-74
2022/02/28 18:45:54;;;;;;;21.25;11.27;;;;;;;5.38;48.68;101881.16;8130887;35;20141;-74
2022/02/28 18:51:00;;;;;;;17.15;10.80;;;;;;;5.22;48.77;101879.97;8114993;35;20444;-75
2022/02/28 18:56:04;;;;;;;17.60;10.07;;;;;;;5.15;48.34;101876.63;8144401;35;20448;-75
2022/02/28 19:01:09;;;;;;;20.50;12.02;;;;;;;5.13;47.66;101882.91;8142219;35;20155;-73
2022/02/28 19:06:13;;;;;;;23.52;13.02;;;;;;;5.11;46.81;101890.13;8142110;35;20143;-73
2022/02/28 19:11:16;;;;;;;21.83;11.25;;;;;;;5.18;45.82;101891.63;8141227;35;20477;-74
2022/02/28 19:16:20;;;;;;;19.50;11.80;;;;;;;5.05;45.79;101892.06;8142250;35;20162;-74
2022/02/28 19:21:23;;;;;;;18.95;11.25;;;;;;;4.97;45.56;101890.56;8142208;35;20458;-74
2022/02/28 19:26:27;;;;;;;22.98;12.10;;;;;;;4.73;45.83;101876.25;8143945;35;20868;-74
2022/02/28 19:31:32;;;;;;;23.17;12.55;;;;;;;4.68;46.28;101887.03;8141634;35;20428;-74
2022/02/28 19:36:36;;;;;;;23.27;11.85;;;;;;;4.55;46.57;101893.69;8135129;35;21020;-74
2022/02/28 19:41:39;;;;;;;27.77;13.45;;;;;;;4.45;47.32;101889.59;8138218;35;20145;-74
2022/02/28 19:46:44;;;;;;;29.17;15.85;;;;;;;4.35;47.85;101895.19;8139062;35;20158;-75
2022/02/28 19:51:48;;;;;;;24.85;14.05;;;;;;;4.10;48.89;101879.09;8143148;35;20441;-75
2022/02/28 19:56:51;;;;;;;25.17;12.95;;;;;;;4.08;49.35;101880.94;8144531;35;20642;-76
2022/02/28 20:01:55;;;;;;;30.48;14.88;;;;;;;3.97;50.25;101880.38;8140222;35;20189;-74
2022/02/28 20:07:00;;;;;;;31.48;15.30;;;;;;;3.84;50.96;101865.69;8140529;35;20154;-75
2022/02/28 20:12:03;;;;;;;32.97;15.77;;;;;;;3.82;51.24;101868.44;8144432;35;20146;-74
2022/02/28 20:17:08;;;;;;;29.23;14.13;;;;;;;3.80;51.11;101872.03;8146891;35;20570;-76
2022/02/28 20:22:11;;;;;;;22.92;12.82;;;;;;;3.76;50.86;101870.38;8153490;35;20573;-75
2022/02/28 20:27:14;;;;;;;26.52;13.27;;;;;;;3.68;50.63;101866.16;8157634;35;21019;-75
2022/02/28 20:32:19;;;;;;;29.88;13.15;;;;;;;3.70;50.65;101866.09;8160291;35;20207;-74
2022/02/28 20:37:23;;;;;;;25.33;13.23;;;;;;;3.45;50.86;101869.44;8161318;35;21053;-74
2022/02/28 20:42:27;;;;;;;23.35;12.02;;;;;;;3.42;51.06;101874.00;8159439;35;20459;-74
2022/02/28 20:47:31;;;;;;;24.17;11.95;;;;;;;3.36;51.03;101860.88;8135070;35;20245;-73
2022/02/28 20:52:34;;;;;;;19.30;10.98;;;;;;;3.28;51.35;101869.06;8140917;35;20487;-73
2022/02/28 20:57:37;;;;;;;26.75;13.00;;;;;;;3.19;51.27;101862.22;8161566;35;20637;-74
2022/02/28 21:02:42;;;;;;;24.88;12.32;;;;;;;3.18;51.61;101864.88;8163650;35;20966;-74
2022/02/28 21:07:46;;;;;;;31.52;12.45;;;;;;;3.11;51.56;101855.38;8160064;35;20142;-73
2022/02/28 21:12:49;;;;;;;25.58;12.40;;;;;;;2.93;51.80;101862.88;8149007;35;20302;-73
2022/02/28 21:17:54;;;;;;;23.13;11.60;;;;;;;2.95;51.71;101863.72;8145296;35;20436;-74
2022/02/28 21:22:58;;;;;;;24.48;12.00;;;;;;;2.84;51.78;101865.78;8146873;35;20487;-73
2022/02/28 21:28:02;;;;;;;24.77;12.38;;;;;;;2.88;52.17;101861.25;8145176;35;20488;-74
2022/02/28 21:33:06;;;;;;;27.30;12.15;;;;;;;2.92;52.31;101862.94;8146670;35;20190;-75
2022/02/28 21:38:11;;;;;;;22.90;11.05;;;;;;;2.83;52.12;101864.03;8263089;29;20442;-76
2022/02/28 21:43:15;;;;;;;23.77;10.55;;;;;;;2.69;52.46;101876.75;8230216;34;20612;-75
2022/02/28 21:48:19;;;;;;;27.65;12.25;;;;;;;2.57;52.50;101865.53;8250447;34;20188;-76
2022/02/28 21:53:23;;;;;;;30.85;12.23;;;;;;;2.56;52.51;101861.16;8228773;34;21081;-75
2022/02/28 21:58:27;;;;;;;24.83;11.00;;;;;;;2.53;52.36;101860.31;8250214;34;20491;-75
2022/02/28 22:03:32;;;;;;;28.15;13.45;;;;;;;2.57;52.28;101862.00;8244137;34;20430;-76
2022/02/28 22:08:35;;;;;;;22.50;11.73;;;;;;;2.24;52.76;101859.22;8251576;34;20680;-74
2022/02/28 22:13:38;;;;;;;27.15;12.50;;;;;;;2.23;52.81;101865.44;8251802;34;20184;-75
2022/02/28 22:18:42;;;;;;;29.85;13.55;;;;;;;2.20;52.59;101862.84;8251502;34;20247;-74
2022/02/28 22:23:46;;;;;;;23.88;12.60;;;;;;;2.30;52.61;101867.03;8226785;34;20448;-75
2022/02/28 22:28:50;;;;;;;31.73;12.63;;;;;;;2.22;52.32;101863.66;8226644;34;20528;-75
2022/02/28 22:33:54;;;;;;;26.40;11.50;;;;;;;2.14;52.29;101852.41;8252499;34;20276;-74
2022/02/28 22:38:57;;;;;;;29.17;13.80;;;;;;;1.99;52.81;101845.63;8250620;34;20160;-75
2022/02/28 22:44:00;;;;;;;28.25;12.13;;;;;;;2.10;52.93;101848.06;8247032;34;20728;-75
2022/02/28 22:49:04;;;;;;;29.15;11.68;;;;;;;1.98;52.60;101851.84;8249775;34;20510;-76
2022/02/28 22:54:07;;;;;;;24.90;12.67;;;;;;;2.03;52.62;101854.38;8250054;34;20993;-76
2022/02/28 22:59:10;;;;;;;29.17;12.53;;;;;;;1.98;53.06;101857.16;8247636;34;20472;-75
2022/02/28 23:04:19;;;;;;;28.33;12.43;;;;;;;1.76;53.81;101845.28;8247710;34;20437;-75
2022/02/28 23:20:09;;;;;;;27.77;12.90;;;;;;;1.58;55.25;101838.56;8245155;34;20262;-75
2022/02/28 23:25:12;;;;;;;27.97;11.97;;;;;;;1.60;55.55;101836.78;8246433;34;20156;-75
2022/02/28 23:30:17;;;;;;;26.90;12.17;;;;;;;1.60;55.47;101837.63;8246943;34;20554;-75
2022/02/28 23:35:21;;;;;;;27.67;12.40;;;;;;;1.54;55.81;101832.47;8244607;34;20292;-76